Derby, New York
Current Conditions -  °F | °C
As of 3:53 AM on Sunday 26 Oct 2014 (Local Time) from KDKK Reporting Station
Few Clouds Few Clouds  
Wind Chill: 52°   Ceiling: Unl
Heat Index: 52°   Visibility: 10mi
Dew Point: 34°   Wind: 15mph
Humidity: 50%   Direction: 280°W
Pressure: 29.72"   Gusts: 26mph
Location:  42.68°N, 78.97°W
Report Text: KDKK 260753Z AUTO 28013G23KT 10SM FEW048 11/01 A2972 RMK AO2 SLP065 T01110011
Loading
Personal Weather Stations






























Interactive Weather Map
Tropical Storm Tracking
New forecast layout! Learn more

10-Day Weather Forecast

Advertisements
Track Severe Weather on mobile